Time;durP1;ratioP1;P1;durP2;ratioP2;P2;SDS_P1;SDS_P2;PMS_P1;PMS_P2;Temp;Humidity;BMP_temperature;BMP_pressure;BME280_temperature;BME280_humidity;BME280_pressure;Samples;Min_cycle;Max_cycle;Signal;HPM_P1;HPM_P2
2022/02/12 00:00:47;;;;;;;15.82;3.80;;;3.00;99.90;;;;;;5038426;28;20049;-72
2022/02/12 00:03:12;;;;;;;13.98;3.80;;;2.30;99.90;;;;;;5048817;28;20440;-72
2022/02/12 00:05:41;;;;;;;14.85;3.42;;;2.30;99.90;;;;;;5066804;28;20120;-73
2022/02/12 00:08:09;;;;;;;13.13;3.40;;;2.40;99.90;;;;;;5031713;28;20051;-72
2022/02/12 00:10:35;;;;;;;18.52;3.90;;;2.20;99.90;;;;;;5015769;28;20083;-72
2022/02/12 00:13:11;;;;;;;20.92;3.72;;;2.30;99.90;;;;;;5034423;28;20073;-72
2022/02/12 00:15:40;;;;;;;21.67;4.07;;;2.20;99.90;;;;;;5031962;28;20095;-72
2022/02/12 00:18:06;;;;;;;14.20;3.78;;;2.20;99.90;;;;;;4999707;28;20084;-73
2022/02/12 00:20:38;;;;;;;13.18;3.67;;;2.20;99.90;;;;;;5015934;28;20041;-73
2022/02/12 00:23:04;;;;;;;23.73;3.92;;;2.20;99.90;;;;;;5015437;28;20045;-73
2022/02/12 00:25:30;;;;;;;12.13;3.58;;;2.20;99.90;;;;;;5040047;28;20037;-73
2022/02/12 00:28:00;;;;;;;18.08;3.65;;;2.20;99.90;;;;;;5031979;28;20489;-73
2022/02/12 00:30:27;;;;;;;17.65;3.92;;;2.20;99.90;;;;;;5031850;28;20488;-73
2022/02/12 00:32:56;;;;;;;16.02;4.05;;;2.20;99.90;;;;;;5032133;28;20053;-73
2022/02/12 00:35:22;;;;;;;16.30;3.92;;;2.10;99.90;;;;;;5031999;28;20056;-72
2022/02/12 00:37:48;;;;;;;16.20;3.78;;;2.10;99.90;;;;;;5031744;28;20049;-72
2022/02/12 00:40:14;;;;;;;21.70;3.35;;;2.00;99.90;;;;;;5032825;28;20038;-72
2022/02/12 00:42:39;;;;;;;15.45;3.22;;;2.10;99.90;;;;;;5014522;28;20418;-72
2022/02/12 00:45:06;;;;;;;18.38;3.33;;;2.10;99.90;;;;;;5048441;28;20045;-73
2022/02/12 00:47:32;;;;;;;16.42;3.65;;;2.00;99.90;;;;;;5064539;28;20042;-73
2022/02/12 00:49:58;;;;;;;16.55;3.42;;;2.00;99.90;;;;;;5031410;28;20041;-73
2022/02/12 00:52:23;;;;;;;17.27;3.65;;;2.00;99.90;;;;;;5048188;28;20116;-73
2022/02/12 00:54:52;;;;;;;21.17;3.72;;;2.00;99.90;;;;;;5031277;28;20142;-73
2022/02/12 00:57:18;;;;;;;13.52;3.30;;;2.00;99.90;;;;;;5030747;28;20041;-73
2022/02/12 00:59:46;;;;;;;15.20;3.42;;;2.00;99.90;;;;;;5022079;28;20049;-73
2022/02/12 01:02:12;;;;;;;11.70;3.00;;;2.00;99.90;;;;;;5051441;28;20150;-73
2022/02/12 01:04:38;;;;;;;12.18;3.30;;;2.10;99.90;;;;;;5034656;28;20504;-73
2022/02/12 01:07:06;;;;;;;14.30;3.35;;;1.90;99.90;;;;;;5035211;28;20053;-73
2022/02/12 01:09:32;;;;;;;18.45;3.70;;;1.90;99.90;;;;;;5035098;28;20037;-73
2022/02/12 01:12:03;;;;;;;15.10;3.33;;;1.90;99.90;;;;;;5050124;28;20045;-73
2022/02/12 01:14:29;;;;;;;21.75;3.50;;;1.90;99.90;;;;;;5047989;28;20564;-73
2022/02/12 01:16:55;;;;;;;18.90;3.80;;;1.90;99.90;;;;;;5052010;28;20120;-73
2022/02/12 01:19:21;;;;;;;13.40;2.88;;;1.90;99.90;;;;;;5055320;28;20385;-73
2022/02/12 01:21:46;;;;;;;14.98;3.25;;;1.90;99.90;;;;;;5038925;28;20041;-73
2022/02/12 01:24:12;;;;;;;15.63;2.97;;;1.90;99.90;;;;;;5056477;28;20041;-73
2022/02/12 01:26:38;;;;;;;18.63;3.42;;;1.90;99.90;;;;;;5055510;28;20095;-73
2022/02/12 01:29:06;;;;;;;12.45;3.10;;;1.90;99.90;;;;;;5055013;28;20124;-75
2022/02/12 01:31:33;;;;;;;18.98;3.72;;;1.90;99.90;;;;;;5052147;28;20045;-76
2022/02/12 01:33:59;;;;;;;16.00;3.30;;;1.90;99.90;;;;;;5035135;28;20056;-75
2022/02/12 01:36:25;;;;;;;19.98;3.35;;;1.90;99.90;;;;;;5018673;28;20049;-78
2022/02/12 01:39:00;;;;;;;12.80;3.10;;;2.30;99.90;;;;;;5035384;28;20464;-78
2022/02/12 01:41:25;;;;;;;15.32;3.20;;;1.80;99.90;;;;;;5036349;28;20045;-78
2022/02/12 01:44:11;;;;;;;15.27;3.55;;;1.90;99.90;;;;;;5036419;28;20560;-77
2022/02/12 01:46:38;;;;;;;18.23;3.30;;;1.80;99.90;;;;;;5019006;28;20120;-78
2022/02/12 01:49:06;;;;;;;21.05;3.97;;;1.50;99.90;;;;;;5023215;28;20037;-78
2022/02/12 01:51:32;;;;;;;20.70;3.58;;;2.60;99.90;;;;;;5053118;28;20047;-78
2022/02/12 01:54:01;;;;;;;24.05;3.97;;;2.30;99.90;;;;;;5056015;28;20041;-78
2022/02/12 01:56:33;;;;;;;18.48;3.20;;;1.80;99.90;;;;;;5038216;28;20049;-78
2022/02/12 01:58:59;;;;;;;16.05;3.72;;;1.80;99.90;;;;;;5038142;28;20442;-84
2022/02/12 02:01:27;;;;;;;16.60;3.50;;;2.80;99.90;;;;;;5055911;28;20405;-84
2022/02/12 02:03:53;;;;;;;15.70;3.80;;;1.80;99.90;;;;;;5038059;28;20037;-85
2022/02/12 02:06:19;;;;;;;13.38;3.60;;;2.60;99.90;;;;;;5034082;28;20091;-84
2022/02/12 02:08:50;;;;;;;18.20;3.67;;;1.80;99.90;;;;;;5002520;28;20080;-84
2022/02/12 02:11:16;;;;;;;19.50;3.50;;;2.60;99.90;;;;;;5018382;28;20482;-83
2022/02/12 02:13:45;;;;;;;20.05;4.47;;;1.80;99.90;;;;;;5049107;28;20052;-82
2022/02/12 02:16:15;;;;;;;21.80;3.88;;;2.90;99.90;;;;;;5054755;28;20037;-82
2022/02/12 02:18:41;;;;;;;16.40;4.50;;;1.80;99.90;;;;;;5055962;28;20108;-82
2022/02/12 02:21:09;;;;;;;13.45;3.65;;;1.70;99.90;;;;;;5037759;28;20041;-83
2022/02/12 02:23:36;;;;;;;14.70;3.90;;;1.70;99.90;;;;;;5033055;28;20037;-77
2022/02/12 02:26:09;;;;;;;18.52;3.80;;;1.70;99.90;;;;;;5055749;28;20044;-84
2022/02/12 02:28:35;;;;;;;14.23;3.83;;;2.20;99.90;;;;;;5054042;28;20072;-85
2022/02/12 02:31:02;;;;;;;13.43;4.13;;;2.90;99.90;;;;;;5037677;28;20044;-85
2022/02/12 02:33:31;;;;;;;18.92;3.72;;;3.00;99.90;;;;;;5047558;28;20029;-85
2022/02/12 02:35:56;;;;;;;16.95;3.88;;;1.70;99.90;;;;;;5017923;28;20080;-83
2022/02/12 02:38:24;;;;;;;17.83;3.95;;;2.80;99.90;;;;;;5041910;28;20072;-84
2022/02/12 02:40:54;;;;;;;20.58;4.00;;;2.80;99.90;;;;;;5053433;28;20564;-83
2022/02/12 02:43:21;;;;;;;17.85;4.10;;;2.60;99.90;;;;;;5021338;28;20389;-84
2022/02/12 02:45:47;;;;;;;20.60;5.10;;;1.70;99.90;;;;;;5054270;28;20076;-83
2022/02/12 02:48:12;;;;;;;13.10;3.72;;;2.80;99.90;;;;;;5055037;28;20544;-83
2022/02/12 02:56:14;;;;;;;24.38;4.60;;;1.70;99.90;;;;;;5034099;28;20049;-82
2022/02/12 02:58:42;;;;;;;15.55;4.20;;;1.60;99.90;;;;;;5052984;28;20037;-83
2022/02/12 03:01:18;;;;;;;26.98;4.85;;;0.80;99.90;;;;;;5033901;28;20156;-83
2022/02/12 03:03:52;;;;;;;16.75;4.03;;;2.90;99.90;;;;;;5033986;28;20041;-83
2022/02/12 03:06:20;;;;;;;14.80;4.43;;;2.30;99.90;;;;;;5000932;28;20076;-84
2022/02/12 03:08:48;;;;;;;19.73;4.43;;;1.70;99.90;;;;;;5033630;28;20073;-83
2022/02/12 03:11:16;;;;;;;25.65;4.82;;;1.60;99.90;;;;;;5033555;28;20383;-84
2022/02/12 03:13:42;;;;;;;17.98;4.90;;;0.50;99.90;;;;;;5016412;28;20029;-85
2022/02/12 03:16:08;;;;;;;16.98;5.40;;;1.60;99.90;;;;;;5035021;28;20456;-84
2022/02/12 03:18:38;;;;;;;17.77;4.35;;;2.90;99.90;;;;;;5034459;28;20041;-84
2022/02/12 03:21:04;;;;;;;21.48;4.82;;;2.20;99.90;;;;;;5034630;28;20045;-84
2022/02/12 03:23:30;;;;;;;21.50;4.45;;;2.50;99.90;;;;;;5033289;28;20056;-84
2022/02/12 03:25:56;;;;;;;16.70;4.35;;;1.60;99.90;;;;;;5016976;28;20132;-85
2022/02/12 03:28:22;;;;;;;19.17;4.63;;;1.50;99.90;;;;;;5033023;28;20040;-85
2022/02/12 03:30:50;;;;;;;10.50;3.90;;;2.20;99.90;;;;;;5049634;28;20101;-84
2022/02/12 03:33:18;;;;;;;17.35;3.90;;;1.90;99.90;;;;;;5026550;28;20041;-84
2022/02/12 03:35:45;;;;;;;20.67;4.38;;;2.70;99.90;;;;;;5054296;28;20106;-84
2022/02/12 03:38:14;;;;;;;16.15;3.70;;;2.00;99.90;;;;;;5036485;28;20079;-84
2022/02/12 03:40:43;;;;;;;17.85;3.97;;;1.90;99.90;;;;;;5051854;28;20045;-83
2022/02/12 03:43:12;;;;;;;16.65;4.15;;;1.50;99.90;;;;;;5052959;28;20045;-82
2022/02/12 03:45:38;;;;;;;18.67;3.92;;;1.60;99.90;;;;;;5051830;28;20128;-83
2022/02/12 03:48:05;;;;;;;16.38;3.70;;;2.80;99.90;;;;;;5039112;28;20049;-82
2022/02/12 03:50:31;;;;;;;18.38;4.63;;;1.20;99.90;;;;;;5049516;28;20045;-82
2022/02/12 03:52:59;;;;;;;19.33;4.15;;;2.10;99.90;;;;;;5034152;28;20133;-82
2022/02/12 03:55:25;;;;;;;15.80;3.20;;;2.20;99.90;;;;;;5034009;28;20642;-82
2022/02/12 03:57:52;;;;;;;15.38;3.45;;;1.70;99.90;;;;;;5034254;28;20033;-84
2022/02/12 04:00:19;;;;;;;17.92;3.55;;;2.00;99.90;;;;;;5033335;28;20063;-83
2022/02/12 04:02:55;;;;;;;17.88;3.83;;;1.50;99.90;;;;;;5035714;28;20049;-83
2022/02/12 04:05:21;;;;;;;17.38;3.67;;;1.50;99.90;;;;;;5037626;28;20115;-83
2022/02/12 04:07:47;;;;;;;12.98;3.20;;;1.50;99.90;;;;;;5032519;28;20049;-83
2022/02/12 04:10:17;;;;;;;22.25;4.10;;;1.50;99.90;;;;;;5032721;28;20117;-83
2022/02/12 04:12:45;;;;;;;22.17;3.78;;;1.50;99.90;;;;;;5033756;28;20045;-83
2022/02/12 04:15:14;;;;;;;16.85;3.45;;;2.20;99.90;;;;;;5032714;28;20464;-83
2022/02/12 04:17:49;;;;;;;22.25;4.07;;;1.40;99.90;;;;;;5032201;28;20041;-83
2022/02/12 04:20:18;;;;;;;13.45;3.17;;;1.50;99.90;;;;;;5035008;28;20042;-83
2022/02/12 04:22:44;;;;;;;22.23;3.63;;;1.40;99.90;;;;;;4999798;28;20041;-83
2022/02/12 04:25:17;;;;;;;22.70;3.95;;;1.40;99.90;;;;;;5015842;28;20045;-83
2022/02/12 04:27:43;;;;;;;19.27;3.97;;;1.40;99.90;;;;;;5033669;28;20112;-84
2022/02/12 04:30:11;;;;;;;18.33;3.88;;;2.30;99.90;;;;;;5032007;28;20052;-83
2022/02/12 04:32:37;;;;;;;17.85;4.13;;;1.40;99.90;;;;;;5049108;28;20107;-83
2022/02/12 04:35:04;;;;;;;17.40;3.80;;;1.40;99.90;;;;;;5015915;28;20402;-83
2022/02/12 04:37:31;;;;;;;14.90;4.20;;;1.40;99.90;;;;;;5032802;28;20048;-83
2022/02/12 04:39:57;;;;;;;22.20;4.50;;;1.40;99.90;;;;;;5027353;28;20113;-83
2022/02/12 04:42:23;;;;;;;25.13;4.03;;;1.70;99.90;;;;;;5035089;28;20378;-84
2022/02/12 04:44:51;;;;;;;14.90;3.75;;;1.40;99.90;;;;;;5035582;28;20043;-84
2022/02/12 04:47:18;;;;;;;13.90;3.70;;;1.30;99.90;;;;;;5051734;28;20512;-86
2022/02/12 04:49:46;;;;;;;20.17;4.10;;;1.70;99.90;;;;;;5019065;28;20047;-86
2022/02/12 04:52:13;;;;;;;15.70;4.10;;;1.30;99.90;;;;;;5051583;28;20045;-86
2022/02/12 04:54:40;;;;;;;23.60;3.88;;;1.30;99.90;;;;;;5050870;28;20081;-85
2022/02/12 04:57:06;;;;;;;19.05;4.10;;;1.30;99.90;;;;;;5055467;28;20091;-86
2022/02/12 04:59:33;;;;;;;16.77;3.67;;;1.40;99.90;;;;;;5052970;28;20065;-85
2022/02/12 05:02:00;;;;;;;16.08;3.60;;;1.30;99.90;;;;;;5051704;28;20045;-86
2022/02/12 05:04:25;;;;;;;21.35;4.63;;;1.30;99.90;;;;;;5034883;28;20084;-85
2022/02/12 05:06:52;;;;;;;20.60;4.15;;;1.30;99.90;;;;;;5051615;28;20076;-85
2022/02/12 05:09:19;;;;;;;19.05;4.35;;;1.30;99.90;;;;;;5035151;28;20438;-86
2022/02/12 05:11:47;;;;;;;15.90;4.05;;;1.40;99.90;;;;;;5049301;28;20051;-85
2022/02/12 05:14:14;;;;;;;17.17;3.88;;;1.70;99.90;;;;;;5049369;28;20448;-85
2022/02/12 05:16:40;;;;;;;18.77;4.03;;;1.60;99.90;;;;;;5035135;28;20389;-85
2022/02/12 05:19:06;;;;;;;18.85;4.20;;;2.30;99.90;;;;;;5035450;28;20509;-86
2022/02/12 05:21:40;;;;;;;19.95;4.45;;;2.00;99.90;;;;;;5051190;28;20081;-84
2022/02/12 05:24:13;;;;;;;14.70;4.18;;;2.10;99.90;;;;;;5052825;28;20444;-84
2022/02/12 05:26:39;;;;;;;15.05;3.90;;;1.50;99.90;;;;;;5034731;28;20362;-77
2022/02/12 05:29:05;;;;;;;17.27;4.28;;;1.20;99.90;;;;;;5027769;28;20394;-78
2022/02/12 05:31:31;;;;;;;24.70;4.47;;;2.00;99.90;;;;;;5032395;28;20039;-78
2022/02/12 05:33:57;;;;;;;18.33;4.57;;;1.80;99.90;;;;;;5015004;28;20158;-78
2022/02/12 05:36:23;;;;;;;15.13;3.92;;;2.30;99.90;;;;;;5031280;28;20571;-78
2022/02/12 05:38:48;;;;;;;18.08;4.35;;;1.20;99.90;;;;;;5031232;28;20063;-78
2022/02/12 05:41:15;;;;;;;17.13;3.95;;;1.20;99.90;;;;;;5030977;28;20037;-78
2022/02/12 05:43:41;;;;;;;18.30;3.80;;;1.20;99.90;;;;;;5031488;28;20363;-78
2022/02/12 05:46:08;;;;;;;20.42;4.72;;;1.20;99.90;;;;;;5025459;28;20041;-77
2022/02/12 05:48:34;;;;;;;15.95;3.85;;;1.20;99.90;;;;;;5050466;28;20033;-78
2022/02/12 05:51:01;;;;;;;13.15;4.28;;;1.40;99.90;;;;;;5033011;28;20465;-77
2022/02/12 05:53:30;;;;;;;19.08;5.07;;;1.20;99.90;;;;;;5017638;28;20070;-77
2022/02/12 05:55:56;;;;;;;16.30;4.00;;;1.20;99.90;;;;;;5050936;28;20052;-77
2022/02/12 05:58:22;;;;;;;20.40;5.00;;;1.20;99.90;;;;;;5051066;28;20171;-78
2022/02/12 06:00:50;;;;;;;16.05;4.22;;;1.30;99.90;;;;;;5030005;28;20053;-85
2022/02/12 06:03:17;;;;;;;21.95;4.63;;;1.30;99.90;;;;;;5025868;28;20041;-84
2022/02/12 06:05:44;;;;;;;20.60;5.05;;;2.20;99.90;;;;;;5052815;28;20037;-85
2022/02/12 06:08:12;;;;;;;17.17;4.70;;;1.30;99.90;;;;;;5038404;28;20099;-86
2022/02/12 06:10:41;;;;;;;20.77;4.65;;;1.40;99.90;;;;;;5054621;28;20044;-84
2022/02/12 06:13:06;;;;;;;12.65;4.25;;;0.80;99.90;;;;;;5054936;28;20091;-83
2022/02/12 06:15:36;;;;;;;18.27;4.65;;;2.50;99.90;;;;;;5054682;28;20045;-84
2022/02/12 06:18:05;;;;;;;12.18;4.10;;;1.40;99.90;;;;;;5043423;28;20071;-84
2022/02/12 06:20:32;;;;;;;16.73;4.57;;;1.40;99.90;;;;;;5036080;28;20369;-84
2022/02/12 06:22:58;;;;;;;21.45;4.82;;;1.40;99.90;;;;;;5034375;28;20038;-84
2022/02/12 06:25:24;;;;;;;17.73;4.10;;;1.40;99.90;;;;;;5035028;28;20049;-84
2022/02/12 06:27:50;;;;;;;18.38;5.00;;;1.40;99.90;;;;;;5034848;28;20096;-84
2022/02/12 06:30:18;;;;;;;23.90;4.68;;;1.40;99.90;;;;;;5034493;28;20039;-84
2022/02/12 06:32:44;;;;;;;25.55;5.25;;;1.90;99.90;;;;;;5035681;28;20399;-85
2022/02/12 06:35:10;;;;;;;17.98;4.85;;;1.40;99.90;;;;;;5019908;28;20040;-77
2022/02/12 06:37:36;;;;;;;18.50;5.22;;;2.50;99.90;;;;;;5035559;28;20060;-78
2022/02/12 06:40:03;;;;;;;15.00;4.70;;;1.60;99.90;;;;;;5053707;28;20124;-78
2022/02/12 06:42:29;;;;;;;19.80;6.63;;;1.30;99.90;;;;;;5037108;28;20041;-78
2022/02/12 06:44:55;;;;;;;19.17;4.70;;;1.30;99.90;;;;;;5037538;28;20037;-78
2022/02/12 06:47:20;;;;;;;14.63;4.70;;;1.30;99.90;;;;;;5054004;28;20083;-78
2022/02/12 06:49:46;;;;;;;16.70;4.60;;;2.50;99.90;;;;;;5053299;28;20052;-78
2022/02/12 06:52:12;;;;;;;22.00;5.25;;;2.00;99.90;;;;;;5032791;28;20041;-78
2022/02/12 06:54:38;;;;;;;17.95;4.90;;;1.40;99.90;;;;;;5017332;28;20045;-76
2022/02/12 06:57:04;;;;;;;22.92;5.45;;;1.40;99.90;;;;;;5017184;28;20033;-77
2022/02/12 06:59:30;;;;;;;15.85;5.53;;;1.40;99.90;;;;;;5033367;28;20486;-77
2022/02/12 07:01:58;;;;;;;19.73;5.22;;;1.30;99.90;;;;;;5033589;28;20405;-77
2022/02/12 07:04:28;;;;;;;20.35;5.63;;;1.30;99.90;;;;;;5034462;28;20397;-77
2022/02/12 07:06:54;;;;;;;24.60;6.07;;;1.30;99.90;;;;;;5044636;28;20033;-77
2022/02/12 07:09:20;;;;;;;16.55;5.53;;;1.30;99.90;;;;;;5036792;28;20052;-77
2022/02/12 07:11:46;;;;;;;15.00;5.65;;;2.10;99.90;;;;;;5054499;28;20393;-77
2022/02/12 07:14:12;;;;;;;23.27;5.40;;;1.30;99.90;;;;;;5036676;28;20481;-83
2022/02/12 07:16:41;;;;;;;22.77;5.65;;;1.40;99.90;;;;;;5052010;28;20076;-83
2022/02/12 07:19:06;;;;;;;16.55;5.55;;;1.30;99.90;;;;;;5017023;28;20501;-84
2022/02/12 07:21:35;;;;;;;22.42;5.72;;;1.40;99.90;;;;;;5033469;28;20037;-85
2022/02/12 07:24:01;;;;;;;18.92;5.72;;;1.30;99.90;;;;;;5041608;28;20041;-84
2022/02/12 07:26:27;;;;;;;24.73;5.88;;;1.40;99.90;;;;;;5037559;28;20064;-83
2022/02/12 07:28:53;;;;;;;20.55;6.60;;;2.10;99.90;;;;;;5054254;28;20037;-81
2022/02/12 07:31:19;;;;;;;18.88;5.85;;;1.40;99.90;;;;;;5052303;28;20045;-82
2022/02/12 07:33:45;;;;;;;22.35;6.05;;;1.40;99.90;;;;;;5052021;28;20124;-81
2022/02/12 07:36:11;;;;;;;24.13;6.30;;;1.40;99.90;;;;;;5052306;28;20044;-82
2022/02/12 07:38:39;;;;;;;15.15;5.72;;;1.40;99.90;;;;;;5036387;28;20064;-82
2022/02/12 07:41:08;;;;;;;24.63;6.45;;;1.40;99.90;;;;;;5042631;28;20037;-82
2022/02/12 07:43:35;;;;;;;23.48;6.53;;;1.90;99.90;;;;;;5032967;28;20104;-82
2022/02/12 07:46:02;;;;;;;20.92;7.00;;;1.50;99.90;;;;;;5032957;28;20083;-83
2022/02/12 07:48:28;;;;;;;20.45;6.45;;;1.50;99.90;;;;;;5052015;28;20044;-84
2022/02/12 07:50:54;;;;;;;22.10;6.75;;;1.50;99.90;;;;;;5053198;28;20048;-84
2022/02/12 07:53:20;;;;;;;24.10;7.60;;;1.50;99.90;;;;;;5029346;28;20497;-85
2022/02/12 07:55:48;;;;;;;20.55;6.88;;;1.60;99.90;;;;;;5048035;28;20048;-88
2022/02/12 07:58:27;;;;;;;18.02;6.80;;;1.60;99.90;;;;;;5036862;28;20232;-81
2022/02/12 08:00:56;;;;;;;26.25;6.75;;;1.60;99.90;;;;;;5064579;28;20056;-80
2022/02/12 08:03:22;;;;;;;20.73;7.45;;;1.70;99.90;;;;;;5055801;28;20458;-79
2022/02/12 08:05:48;;;;;;;19.05;6.93;;;1.70;99.90;;;;;;5052456;28;20055;-77
2022/02/12 08:08:16;;;;;;;21.98;7.07;;;1.70;99.90;;;;;;5052449;28;20120;-80
2022/02/12 08:14:07;;;;;;;17.90;7.10;;;2.40;99.90;;;;;;5032406;28;20108;-89
2022/02/12 08:20:14;;;;;;;18.05;6.53;;;1.80;99.90;;;;;;5001066;28;20051;-83
2022/02/12 08:22:46;;;;;;;24.42;7.13;;;2.10;99.90;;;;;;5025549;28;20139;-89
2022/02/12 08:25:22;;;;;;;23.52;7.22;;;1.90;99.90;;;;;;5016769;28;20100;-90
2022/02/12 08:27:53;;;;;;;22.15;7.30;;;1.90;99.90;;;;;;5016882;28;20124;-90
2022/02/12 08:30:24;;;;;;;27.30;7.57;;;;;;;;;;5040185;28;20088;-80
2022/02/12 08:32:50;;;;;;;23.70;7.30;;;2.00;99.90;;;;;;5064046;28;20127;-87
2022/02/12 08:35:16;;;;;;;21.80;7.00;;;2.40;99.90;;;;;;5056311;28;20119;-88
2022/02/12 08:37:45;;;;;;;22.48;6.60;;;2.00;99.90;;;;;;5025482;28;20055;-87
2022/02/12 08:40:14;;;;;;;16.40;6.65;;;2.60;99.90;;;;;;5067019;28;20179;-78
2022/02/12 08:42:41;;;;;;;24.33;6.45;;;2.10;99.90;;;;;;5031966;28;20041;-77
2022/02/12 08:45:10;;;;;;;22.73;6.47;;;2.80;99.90;;;;;;5065399;28;20115;-76
2022/02/12 08:47:40;;;;;;;23.10;7.28;;;2.20;99.90;;;;;;5043617;28;20112;-77
2022/02/12 08:50:08;;;;;;;25.35;6.63;;;2.20;99.90;;;;;;5019577;28;20044;-86
2022/02/12 08:52:35;;;;;;;26.75;7.65;;;2.20;99.90;;;;;;5032584;28;20045;-89
2022/02/12 08:55:01;;;;;;;17.38;6.45;;;2.30;99.90;;;;;;5018034;28;20072;-85
2022/02/12 08:57:26;;;;;;;26.73;7.03;;;2.30;99.90;;;;;;5050433;28;20045;-89
2022/02/12 08:59:52;;;;;;;21.38;6.88;;;2.30;99.90;;;;;;5049336;28;20398;-75
2022/02/12 09:02:21;;;;;;;24.83;6.93;;;2.30;99.90;;;;;;5033498;28;20457;-78
2022/02/12 09:04:54;;;;;;;22.23;6.70;;;2.30;99.90;;;;;;5041707;28;20409;-82
2022/02/12 09:07:40;;;;;;;18.13;6.20;;;2.40;99.90;;;;;;5017230;28;20037;-82
2022/02/12 09:10:10;;;;;;;27.27;7.18;;;1.80;99.90;;;;;;4998801;28;20516;-82
2022/02/12 09:12:35;;;;;;;23.00;6.43;;;2.40;99.90;;;;;;5015500;28;20073;-82
2022/02/12 09:15:01;;;;;;;25.10;6.45;;;2.00;99.90;;;;;;5035257;28;20068;-77
2022/02/12 09:17:27;;;;;;;23.98;5.78;;;3.30;99.90;;;;;;5035360;28;20460;-77
2022/02/12 09:19:58;;;;;;;20.40;6.63;;;2.50;99.90;;;;;;5031388;28;20053;-78
2022/02/12 09:22:27;;;;;;;21.00;6.10;;;2.50;99.90;;;;;;5031568;28;20045;-77
2022/02/12 09:24:54;;;;;;;21.50;6.45;;;2.50;99.90;;;;;;5015534;28;20110;-77
2022/02/12 09:27:23;;;;;;;17.85;6.45;;;2.60;99.90;;;;;;5031450;28;20041;-77
2022/02/12 09:29:54;;;;;;;25.85;5.97;;;3.00;99.90;;;;;;5031156;28;20037;-77
2022/02/12 09:32:20;;;;;;;17.95;6.38;;;2.60;99.90;;;;;;5031678;28;20116;-77
2022/02/12 09:34:46;;;;;;;27.00;6.40;;;2.60;99.90;;;;;;5031457;28;20047;-77
2022/02/12 09:37:12;;;;;;;21.98;6.55;;;2.80;99.90;;;;;;5052570;28;20041;-77
2022/02/12 09:39:38;;;;;;;19.38;6.53;;;3.20;99.90;;;;;;5038917;28;20052;-77
2022/02/12 09:42:04;;;;;;;18.48;6.07;;;2.80;99.90;;;;;;5055188;28;20118;-77
2022/02/12 09:44:30;;;;;;;27.60;6.88;;;2.90;99.90;;;;;;5038626;28;20126;-77
2022/02/12 09:47:16;;;;;;;24.08;6.57;;;3.70;99.90;;;;;;5038269;28;20056;-77
2022/02/12 09:49:44;;;;;;;25.33;6.57;;;3.00;99.90;;;;;;5054884;28;20047;-77
2022/02/12 09:52:15;;;;;;;26.40;7.25;;;3.00;99.90;;;;;;5038538;28;20287;-77
2022/02/12 09:54:44;;;;;;;23.95;7.18;;;3.00;99.90;;;;;;5049332;28;20037;-77
2022/02/12 09:57:10;;;;;;;19.65;7.05;;;4.10;99.90;;;;;;5038458;28;20033;-77
2022/02/12 09:59:35;;;;;;;22.70;6.63;;;3.90;99.90;;;;;;5037919;28;20257;-77
2022/02/12 10:02:07;;;;;;;23.27;6.45;;;3.50;99.90;;;;;;5038106;28;20053;-77
2022/02/12 10:04:33;;;;;;;26.42;6.15;;;3.20;99.90;;;;;;5038453;28;20041;-77
2022/02/12 10:07:01;;;;;;;23.73;7.68;;;3.60;99.90;;;;;;5054660;28;20040;-77
2022/02/12 10:09:27;;;;;;;19.60;6.45;;;3.30;99.90;;;;;;5054549;28;20409;-77
2022/02/12 10:11:56;;;;;;;19.50;7.05;;;4.00;99.90;;;;;;5055626;28;20041;-77
2022/02/12 10:14:37;;;;;;;28.38;7.63;;;3.40;99.90;;;;;;5036648;28;20043;-77
2022/02/12 10:17:04;;;;;;;25.65;6.72;;;4.10;99.90;;;;;;5037825;28;20481;-77
2022/02/12 10:19:30;;;;;;;23.50;7.07;;;3.80;99.90;;;;;;5021481;28;20045;-76
2022/02/12 10:22:06;;;;;;;28.55;6.47;;;3.50;99.90;;;;;;5054147;28;20076;-77
2022/02/12 10:24:55;;;;;;;23.65;6.28;;;3.60;99.90;;;;;;5055337;28;20041;-77
2022/02/12 10:27:26;;;;;;;26.42;5.22;;;3.60;99.90;;;;;;5037732;28;20405;-76
2022/02/12 10:29:53;;;;;;;32.00;6.57;;;3.70;99.90;;;;;;5038955;28;20478;-76
2022/02/12 10:32:21;;;;;;;26.13;6.07;;;3.70;99.90;;;;;;5017645;28;20120;-77
2022/02/12 10:34:48;;;;;;;20.35;5.82;;;3.70;99.90;;;;;;5067281;28;20041;-77
2022/02/12 10:37:22;;;;;;;21.45;5.85;;;4.10;99.90;;;;;;5067335;28;20049;-77
2022/02/12 10:40:04;;;;;;;27.45;5.97;;;4.00;99.90;;;;;;5034186;28;20041;-77
2022/02/12 10:42:31;;;;;;;32.65;6.07;;;4.00;99.90;;;;;;5067457;28;20037;-77
2022/02/12 10:44:57;;;;;;;20.58;4.93;;;3.80;99.90;;;;;;5074236;28;20033;-76
2022/02/12 10:47:24;;;;;;;18.98;5.45;;;3.90;99.90;;;;;;5037240;28;20115;-77
2022/02/12 10:49:54;;;;;;;17.23;5.40;;;3.90;99.90;;;;;;5053471;28;20444;-77
2022/02/12 10:52:22;;;;;;;20.70;5.40;;;4.00;99.90;;;;;;5053932;28;20048;-77
2022/02/12 10:54:54;;;;;;;18.23;5.03;;;4.00;99.90;;;;;;5037205;28;20048;-77
2022/02/12 10:57:29;;;;;;;19.30;4.93;;;4.00;99.90;;;;;;5020617;28;20041;-76
2022/02/12 10:59:56;;;;;;;19.23;4.95;;;4.20;99.90;;;;;;5032091;28;20046;-77
2022/02/12 11:02:26;;;;;;;21.17;5.22;;;4.30;99.90;;;;;;5034944;28;20483;-76
2022/02/12 11:04:53;;;;;;;22.27;5.43;;;4.20;99.90;;;;;;5035188;28;20079;-77
2022/02/12 11:07:19;;;;;;;20.63;5.28;;;4.70;99.90;;;;;;5050074;28;20072;-77
2022/02/12 11:09:46;;;;;;;16.45;5.22;;;4.20;99.90;;;;;;5066868;28;20505;-77
2022/02/12 11:12:13;;;;;;;18.70;4.82;;;4.30;99.90;;;;;;5050419;28;20438;-77
2022/02/12 11:14:43;;;;;;;19.50;4.90;;;4.30;99.90;;;;;;5064758;28;20037;-77
2022/02/12 11:17:13;;;;;;;15.95;4.97;;;4.40;99.90;;;;;;5020835;28;20174;-77
2022/02/12 11:19:40;;;;;;;14.55;4.47;;;4.40;99.90;;;;;;5053292;28;20044;-77
2022/02/12 11:22:09;;;;;;;26.90;4.65;;;4.40;99.90;;;;;;5036745;28;20409;-76
2022/02/12 11:24:47;;;;;;;14.18;4.72;;;4.80;99.90;;;;;;5054633;28;20520;-77
2022/02/12 11:27:18;;;;;;;22.10;5.05;;;4.50;99.90;;;;;;5052941;28;20048;-77
2022/02/12 11:29:54;;;;;;;19.17;5.03;;;4.60;99.90;;;;;;5034690;28;20086;-77
2022/02/12 11:32:26;;;;;;;15.40;5.07;;;5.10;99.90;;;;;;5034398;28;20114;-76
2022/02/12 11:35:08;;;;;;;14.63;4.70;;;5.40;99.90;;;;;;5034374;28;20038;-76
2022/02/12 11:37:37;;;;;;;20.88;5.95;;;4.70;99.90;;;;;;5032864;28;20083;-76
2022/02/12 11:40:17;;;;;;;15.75;4.28;;;4.80;99.90;;;;;;5034093;28;20389;-76
2022/02/12 11:42:45;;;;;;;20.17;5.05;;;4.80;99.90;;;;;;5016380;28;20049;-76
2022/02/12 11:45:36;;;;;;;20.55;4.78;;;4.80;99.90;;;;;;5032857;28;20167;-76
2022/02/12 11:48:25;;;;;;;17.25;4.95;;;4.90;99.90;;;;;;5041695;28;20045;-76
2022/02/12 11:51:04;;;;;;;18.98;4.47;;;4.90;99.90;;;;;;5035955;28;20055;-76
2022/02/12 11:53:40;;;;;;;22.67;4.45;;;4.90;99.90;;;;;;5052466;28;20055;-76
2022/02/12 11:56:18;;;;;;;17.50;4.57;;;4.90;99.90;;;;;;5052564;28;20052;-76
2022/02/12 11:58:57;;;;;;;23.65;4.20;;;5.30;99.90;;;;;;5036143;28;20151;-77
2022/02/12 12:01:28;;;;;;;16.77;4.38;;;5.10;99.90;;;;;;5051278;28;20579;-76
2022/02/12 12:07:06;;;;;;;14.60;4.43;;;5.20;99.90;;;;;;5032387;28;20182;-77
2022/02/12 12:09:52;;;;;;;23.30;4.82;;;5.00;99.90;;;;;;5016094;28;20103;-77
2022/02/12 12:12:20;;;;;;;17.83;4.10;;;5.10;99.90;;;;;;5028803;28;20049;-76
2022/02/12 12:14:51;;;;;;;23.63;4.60;;;5.10;99.90;;;;;;5033609;28;20106;-76
2022/02/12 12:17:23;;;;;;;16.30;5.28;;;5.10;99.90;;;;;;5048693;28;20108;-76
2022/02/12 12:19:51;;;;;;;15.20;4.93;;;5.10;99.90;;;;;;5038910;28;20036;-77
2022/02/12 12:22:18;;;;;;;12.90;4.60;;;5.20;99.90;;;;;;5035684;28;20393;-76
2022/02/12 12:24:44;;;;;;;19.65;4.43;;;5.30;99.90;;;;;;5051515;28;20078;-80
2022/02/12 12:27:14;;;;;;;12.80;4.05;;;5.30;99.90;;;;;;5038032;28;20037;-77
2022/02/12 12:32:46;;;;;;;17.00;4.53;;;5.30;99.90;;;;;;5041665;28;20543;-83
2022/02/12 12:35:12;;;;;;;16.75;4.50;;;5.50;99.90;;;;;;5027673;28;20057;-76
2022/02/12 12:37:51;;;;;;;16.98;4.80;;;5.90;99.90;;;;;;5027259;28;20044;-76
2022/02/12 12:40:26;;;;;;;19.80;5.25;;;5.40;99.90;;;;;;5071763;28;20067;-76
2022/02/12 12:43:04;;;;;;;16.73;4.40;;;6.10;99.90;;;;;;5055338;28;20049;-76
2022/02/12 12:45:30;;;;;;;19.88;5.25;;;5.40;99.90;;;;;;5072956;28;20381;-76
2022/02/12 12:47:56;;;;;;;17.85;4.95;;;5.50;99.90;;;;;;5051460;28;20045;-75
2022/02/12 12:50:23;;;;;;;26.83;5.05;;;5.40;99.90;;;;;;5047371;28;20124;-77
2022/02/12 12:53:00;;;;;;;44.40;6.30;;;5.50;99.90;;;;;;5071710;28;20055;-77
2022/02/12 12:55:26;;;;;;;21.02;5.53;;;5.50;99.90;;;;;;5050667;28;20072;-77
2022/02/12 12:57:52;;;;;;;16.25;5.07;;;5.50;99.90;;;;;;5036634;28;20045;-76
2022/02/12 13:00:25;;;;;;;21.55;6.22;;;5.40;99.90;;;;;;5051015;28;20118;-78
2022/02/12 13:02:59;;;;;;;18.02;4.82;;;5.50;99.90;;;;;;5060909;28;20048;-79
2022/02/12 13:05:28;;;;;;;11.45;4.18;;;5.50;99.90;;;;;;5017636;28;20367;-79
2022/02/12 13:07:59;;;;;;;18.88;5.40;;;5.20;99.90;;;;;;5036754;28;20041;-79
2022/02/12 13:10:27;;;;;;;18.90;5.13;;;6.00;99.90;;;;;;5017214;28;20045;-78
2022/02/12 13:12:54;;;;;;;14.93;4.70;;;5.50;99.90;;;;;;5014910;28;20505;-80